Terminal Aerodrome Forecast
Issued by NWS Cleveland, OH

Home | Current Version | Previous Version | Graphics & Text | Print | Product List | Glossary On
Versions: 1 2 3 4 5 6 7 8 9 10 11 12 13 14 15 16
000
FTUS41 KCLE 212045 AAA
TAFYNG
TAF AMD
KYNG 212045Z 2121/2218 18007KT P6SM VCSH BKN005 OVC018
      TEMPO 2121/2122 SCT005 OVC015
     FM212200 19010KT P6SM SCT015 BKN025
     FM220200 19008KT P6SM -SHRA VCTS SCT015 OVC025CB
      TEMPO 2203/2205 3SM -TSRA BKN010CB
     FM220500 22006KT P6SM BKN035
     FM220900 24005KT 6SM BR OVC020=

USA.gov is the U.S. government's official web portal to all federal, state and local government web resources and services.